sensor_id;sensor_type;location;lat;lon;timestamp;pressure;altitude;pressure_sealevel;temperature;humidity
70833;BME280;58452;59.418;17.962;2023-04-26T00:00:44;99843.56;;;7.15;77.54
70833;BME280;58452;59.418;17.962;2023-04-26T00:03:10;99836.53;;;7.17;77.71
70833;BME280;58452;59.418;17.962;2023-04-26T00:05:37;99834.91;;;7.16;77.89
70833;BME280;58452;59.418;17.962;2023-04-26T00:08:03;99833.44;;;7.14;77.95
70833;BME280;58452;59.418;17.962;2023-04-26T00:10:29;99834.09;;;7.16;78.00
70833;BME280;58452;59.418;17.962;2023-04-26T00:12:54;99828.97;;;7.16;77.86
70833;BME280;58452;59.418;17.962;2023-04-26T00:15:20;99828.19;;;7.15;77.96
70833;BME280;58452;59.418;17.962;2023-04-26T00:17:45;99824.81;;;7.15;78.07
70833;BME280;58452;59.418;17.962;2023-04-26T00:20:11;99822.22;;;7.15;77.85
70833;BME280;58452;59.418;17.962;2023-04-26T00:22:38;99819.66;;;7.15;77.98
70833;BME280;58452;59.418;17.962;2023-04-26T00:25:04;99821.25;;;7.16;77.91
70833;BME280;58452;59.418;17.962;2023-04-26T00:27:30;99818.31;;;7.11;78.18
70833;BME280;58452;59.418;17.962;2023-04-26T00:29:56;99817.34;;;7.12;77.89
70833;BME280;58452;59.418;17.962;2023-04-26T00:32:21;99820.75;;;7.12;77.98
70833;BME280;58452;59.418;17.962;2023-04-26T00:34:47;99820.91;;;7.11;78.19
70833;BME280;58452;59.418;17.962;2023-04-26T00:37:12;99820.91;;;7.11;78.36
70833;BME280;58452;59.418;17.962;2023-04-26T00:39:38;99816.84;;;7.08;78.20
70833;BME280;58452;59.418;17.962;2023-04-26T00:42:03;99821.19;;;7.08;78.42
70833;BME280;58452;59.418;17.962;2023-04-26T00:44:29;99817.94;;;7.06;78.50
70833;BME280;58452;59.418;17.962;2023-04-26T00:46:54;99813.91;;;7.03;78.52
70833;BME280;58452;59.418;17.962;2023-04-26T00:49:22;99823.75;;;7.08;78.66
70833;BME280;58452;59.418;17.962;2023-04-26T00:51:53;99820.50;;;7.06;78.70
70833;BME280;58452;59.418;17.962;2023-04-26T00:54:19;99815.53;;;7.04;78.68
70833;BME280;58452;59.418;17.962;2023-04-26T00:56:45;99823.06;;;7.06;78.98
70833;BME280;58452;59.418;17.962;2023-04-26T00:59:11;99816.06;;;7.08;78.92
70833;BME280;58452;59.418;17.962;2023-04-26T01:01:36;99820.38;;;7.07;79.14
70833;BME280;58452;59.418;17.962;2023-04-26T01:04:02;99821.19;;;7.08;79.02
70833;BME280;58452;59.418;17.962;2023-04-26T01:06:32;99819.56;;;7.07;79.23
70833;BME280;58452;59.418;17.962;2023-04-26T01:08:59;99813.50;;;7.08;79.16
70833;BME280;58452;59.418;17.962;2023-04-26T01:11:26;99819.28;;;7.10;79.16
70833;BME280;58452;59.418;17.962;2023-04-26T01:13:52;99823.59;;;7.09;79.27
70833;BME280;58452;59.418;17.962;2023-04-26T01:16:18;99810.91;;;7.08;79.29
70833;BME280;58452;59.418;17.962;2023-04-26T01:18:50;99812.50;;;7.09;79.28
70833;BME280;58452;59.418;17.962;2023-04-26T01:21:23;99809.81;;;7.10;79.27
70833;BME280;58452;59.418;17.962;2023-04-26T01:23:49;99814.94;;;7.10;79.32
70833;BME280;58452;59.418;17.962;2023-04-26T01:26:16;99811.44;;;7.11;79.41
70833;BME280;58452;59.418;17.962;2023-04-26T01:28:41;99807.91;;;7.12;79.53
70833;BME280;58452;59.418;17.962;2023-04-26T01:31:06;99813.84;;;7.13;79.59
70833;BME280;58452;59.418;17.962;2023-04-26T01:33:32;99816.41;;;7.13;79.44
70833;BME280;58452;59.418;17.962;2023-04-26T01:35:57;99812.63;;;7.17;79.62
70833;BME280;58452;59.418;17.962;2023-04-26T01:38:23;99811.69;;;7.18;79.54
70833;BME280;58452;59.418;17.962;2023-04-26T01:40:48;99810.06;;;7.17;79.58
70833;BME280;58452;59.418;17.962;2023-04-26T01:43:14;99823.81;;;7.16;79.75
70833;BME280;58452;59.418;17.962;2023-04-26T01:45:40;99815.47;;;7.14;79.74
70833;BME280;58452;59.418;17.962;2023-04-26T01:48:06;99812.91;;;7.14;79.88
70833;BME280;58452;59.418;17.962;2023-04-26T01:50:32;99812.78;;;7.15;79.79
70833;BME280;58452;59.418;17.962;2023-04-26T01:52:58;99804.91;;;7.17;79.97
70833;BME280;58452;59.418;17.962;2023-04-26T01:55:23;99806.84;;;7.15;80.03
70833;BME280;58452;59.418;17.962;2023-04-26T01:57:49;99804.41;;;7.13;79.84
70833;BME280;58452;59.418;17.962;2023-04-26T02:00:14;99806.84;;;7.15;80.28
70833;BME280;58452;59.418;17.962;2023-04-26T02:02:40;99803.31;;;7.16;80.38
70833;BME280;58452;59.418;17.962;2023-04-26T02:05:09;99799.78;;;7.17;80.39
70833;BME280;58452;59.418;17.962;2023-04-26T02:07:35;99807.34;;;7.18;80.35
70833;BME280;58452;59.418;17.962;2023-04-26T02:10:00;99801.22;;;7.02;81.08
70833;BME280;58452;59.418;17.962;2023-04-26T02:12:26;99802.53;;;7.06;80.88
70833;BME280;58452;59.418;17.962;2023-04-26T02:14:51;99795.53;;;7.08;80.90
70833;BME280;58452;59.418;17.962;2023-04-26T02:17:17;99796.06;;;7.11;80.94
70833;BME280;58452;59.418;17.962;2023-04-26T02:19:42;99790.09;;;7.11;80.81
70833;BME280;58452;59.418;17.962;2023-04-26T02:22:08;99789.81;;;7.14;80.97
70833;BME280;58452;59.418;17.962;2023-04-26T02:24:33;99790.66;;;7.05;81.15
70833;BME280;58452;59.418;17.962;2023-04-26T02:26:58;99788.78;;;7.07;81.22
70833;BME280;58452;59.418;17.962;2023-04-26T02:29:28;99785.00;;;7.01;81.47
70833;BME280;58452;59.418;17.962;2023-04-26T02:31:53;99790.41;;;7.08;81.56
70833;BME280;58452;59.418;17.962;2023-04-26T02:34:18;99797.13;;;7.09;81.52
70833;BME280;58452;59.418;17.962;2023-04-26T02:36:44;99793.63;;;7.10;81.57
70833;BME280;58452;59.418;17.962;2023-04-26T02:39:10;99785.91;;;7.10;81.52
70833;BME280;58452;59.418;17.962;2023-04-26T02:41:36;99785.63;;;7.13;81.71
70833;BME280;58452;59.418;17.962;2023-04-26T02:44:01;99785.19;;;6.90;82.44
70833;BME280;58452;59.418;17.962;2023-04-26T02:46:27;99784.34;;;6.99;82.42
70833;BME280;58452;59.418;17.962;2023-04-26T02:48:52;99784.75;;;7.04;82.52
70833;BME280;58452;59.418;17.962;2023-04-26T02:51:17;99777.75;;;6.97;82.66
70833;BME280;58452;59.418;17.962;2023-04-26T02:53:43;99786.50;;;7.04;82.69
70833;BME280;58452;59.418;17.962;2023-04-26T02:56:08;99781.59;;;7.10;82.26
70833;BME280;58452;59.418;17.962;2023-04-26T02:58:34;99786.63;;;7.02;82.09
70833;BME280;58452;59.418;17.962;2023-04-26T03:00:59;99779.94;;;6.92;83.34
70833;BME280;58452;59.418;17.962;2023-04-26T03:03:25;99784.22;;;7.01;83.07
70833;BME280;58452;59.418;17.962;2023-04-26T03:05:50;99782.50;;;6.92;83.52
70833;BME280;58452;59.418;17.962;2023-04-26T03:08:15;99775.56;;;7.02;83.13
70833;BME280;58452;59.418;17.962;2023-04-26T03:10:43;99784.47;;;7.07;83.06
70833;BME280;58452;59.418;17.962;2023-04-26T03:13:08;99779.94;;;6.92;83.43
70833;BME280;58452;59.418;17.962;2023-04-26T03:15:34;99777.75;;;6.97;83.75
70833;BME280;58452;59.418;17.962;2023-04-26T03:17:59;99778.00;;;6.94;83.99
70833;BME280;58452;59.418;17.962;2023-04-26T03:20:25;99775.56;;;7.02;83.68
70833;BME280;58452;59.418;17.962;2023-04-26T03:22:50;99778.50;;;7.07;83.36
70833;BME280;58452;59.418;17.962;2023-04-26T03:25:16;99774.03;;;6.81;83.82
70833;BME280;58452;59.418;17.962;2023-04-26T03:27:41;99777.31;;;6.74;84.58
70833;BME280;58452;59.418;17.962;2023-04-26T03:30:07;99791.63;;;6.67;85.44
70833;BME280;58452;59.418;17.962;2023-04-26T03:32:33;99787.00;;;6.80;85.17
70833;BME280;58452;59.418;17.962;2023-04-26T03:34:58;99778.13;;;6.74;84.68
70833;BME280;58452;59.418;17.962;2023-04-26T03:37:24;99791.44;;;6.41;86.66
70833;BME280;58452;59.418;17.962;2023-04-26T03:39:49;99794.50;;;6.54;86.84
70833;BME280;58452;59.418;17.962;2023-04-26T03:42:16;99791.63;;;6.67;86.32
70833;BME280;58452;59.418;17.962;2023-04-26T03:44:42;99786.47;;;6.76;85.63
70833;BME280;58452;59.418;17.962;2023-04-26T03:47:07;99789.41;;;6.81;85.85
70833;BME280;58452;59.418;17.962;2023-04-26T03:49:33;99797.00;;;6.73;85.51
70833;BME280;58452;59.418;17.962;2023-04-26T03:51:58;99796.16;;;6.82;85.45
70833;BME280;58452;59.418;17.962;2023-04-26T03:54:24;99800.44;;;6.92;85.19
70833;BME280;58452;59.418;17.962;2023-04-26T03:56:49;99795.19;;;6.83;84.94
70833;BME280;58452;59.418;17.962;2023-04-26T03:59:15;99786.44;;;6.86;85.28
70833;BME280;58452;59.418;17.962;2023-04-26T04:01:40;99786.16;;;6.89;84.62
70833;BME280;58452;59.418;17.962;2023-04-26T04:04:06;99786.69;;;6.93;84.77
70833;BME280;58452;59.418;17.962;2023-04-26T04:06:31;99796.69;;;6.86;84.73
70833;BME280;58452;59.418;17.962;2023-04-26T04:08:57;99792.41;;;6.77;84.63
70833;BME280;58452;59.418;17.962;2023-04-26T04:11:22;99795.94;;;6.66;85.84
70833;BME280;58452;59.418;17.962;2023-04-26T04:13:48;99803.59;;;6.76;85.74
70833;BME280;58452;59.418;17.962;2023-04-26T04:16:13;99798.88;;;6.81;85.75
70833;BME280;58452;59.418;17.962;2023-04-26T04:18:39;99797.56;;;6.67;85.90
70833;BME280;58452;59.418;17.962;2023-04-26T04:21:04;99795.53;;;6.71;86.32
70833;BME280;58452;59.418;17.962;2023-04-26T04:23:30;99803.00;;;6.55;87.06
70833;BME280;58452;59.418;17.962;2023-04-26T04:25:56;99798.47;;;6.20;88.17
70833;BME280;58452;59.418;17.962;2023-04-26T04:28:21;99800.34;;;6.18;89.46
70833;BME280;58452;59.418;17.962;2023-04-26T04:30:48;99801.81;;;6.30;89.09
70833;BME280;58452;59.418;17.962;2023-04-26T04:33:14;99811.13;;;6.31;88.96
70833;BME280;58452;59.418;17.962;2023-04-26T04:35:41;99799.41;;;6.09;88.95
70833;BME280;58452;59.418;17.962;2023-04-26T04:38:07;99802.78;;;6.00;89.81
70833;BME280;58452;59.418;17.962;2023-04-26T04:40:33;99808.59;;;5.93;89.97
70833;BME280;58452;59.418;17.962;2023-04-26T04:42:58;99815.00;;;5.77;90.52
70833;BME280;58452;59.418;17.962;2023-04-26T04:45:25;99819.44;;;5.66;91.34
70833;BME280;58452;59.418;17.962;2023-04-26T04:47:51;99812.03;;;5.63;91.25
70833;BME280;58452;59.418;17.962;2023-04-26T04:50:18;99814.31;;;5.47;91.07
70833;BME280;58452;59.418;17.962;2023-04-26T04:52:44;99822.78;;;5.47;90.81
70833;BME280;58452;59.418;17.962;2023-04-26T04:55:09;99814.03;;;5.50;90.78
70833;BME280;58452;59.418;17.962;2023-04-26T04:57:35;99819.66;;;5.34;89.61
70833;BME280;58452;59.418;17.962;2023-04-26T05:00:00;99822.63;;;5.39;89.48
70833;BME280;58452;59.418;17.962;2023-04-26T05:02:35;99821.72;;;5.50;89.77
70833;BME280;58452;59.418;17.962;2023-04-26T05:05:01;99822.97;;;5.65;88.95
70833;BME280;58452;59.418;17.962;2023-04-26T05:07:28;99818.72;;;5.45;89.56
70833;BME280;58452;59.418;17.962;2023-04-26T05:09:54;99824.78;;;5.34;88.93
70833;BME280;58452;59.418;17.962;2023-04-26T05:12:20;99823.78;;;5.25;88.87
70833;BME280;58452;59.418;17.962;2023-04-26T05:14:45;99821.94;;;5.27;89.56
70833;BME280;58452;59.418;17.962;2023-04-26T05:17:11;99822.88;;;5.36;88.96
70833;BME280;58452;59.418;17.962;2023-04-26T05:19:36;99822.09;;;5.45;88.21
70833;BME280;58452;59.418;17.962;2023-04-26T05:22:02;99813.22;;;5.49;88.64
70833;BME280;58452;59.418;17.962;2023-04-26T05:24:30;99818.06;;;5.52;88.35
70833;BME280;58452;59.418;17.962;2023-04-26T05:26:59;99823.06;;;5.54;88.01
70833;BME280;58452;59.418;17.962;2023-04-26T05:29:31;99818.84;;;5.43;88.41
70833;BME280;58452;59.418;17.962;2023-04-26T05:31:56;99829.25;;;5.51;88.78
70833;BME280;58452;59.418;17.962;2023-04-26T05:34:22;99825.09;;;5.50;87.88
70833;BME280;58452;59.418;17.962;2023-04-26T05:36:48;99832.31;;;5.35;87.73
70833;BME280;58452;59.418;17.962;2023-04-26T05:39:16;99836.38;;;5.48;88.59
70833;BME280;58452;59.418;17.962;2023-04-26T05:41:41;99834.78;;;5.56;88.38
70833;BME280;58452;59.418;17.962;2023-04-26T05:44:07;99835.34;;;5.69;88.76
70833;BME280;58452;59.418;17.962;2023-04-26T05:46:32;99836.97;;;5.70;87.71
70833;BME280;58452;59.418;17.962;2023-04-26T05:48:58;99838.91;;;5.87;86.93
70833;BME280;58452;59.418;17.962;2023-04-26T05:51:23;99833.25;;;5.94;86.46
70833;BME280;58452;59.418;17.962;2023-04-26T05:53:48;99840.41;;;6.00;86.00
70833;BME280;58452;59.418;17.962;2023-04-26T05:56:15;99832.31;;;6.04;84.97
70833;BME280;58452;59.418;17.962;2023-04-26T05:58:40;99841.88;;;5.93;84.02
70833;BME280;58452;59.418;17.962;2023-04-26T06:01:05;99832.97;;;6.06;83.77
70833;BME280;58452;59.418;17.962;2023-04-26T06:03:31;99831.63;;;6.21;83.22
70833;BME280;58452;59.418;17.962;2023-04-26T06:05:58;99834.31;;;6.39;82.65
70833;BME280;58452;59.418;17.962;2023-04-26T06:08:23;99836.22;;;6.37;81.19
70833;BME280;58452;59.418;17.962;2023-04-26T06:10:49;99837.44;;;6.23;81.50
70833;BME280;58452;59.418;17.962;2023-04-26T06:13:14;99831.88;;;6.47;80.00
70833;BME280;58452;59.418;17.962;2023-04-26T06:15:40;99841.34;;;6.37;79.44
70833;BME280;58452;59.418;17.962;2023-04-26T06:18:05;99831.22;;;6.45;80.29
70833;BME280;58452;59.418;17.962;2023-04-26T06:20:32;99830.50;;;6.62;79.69
70833;BME280;58452;59.418;17.962;2023-04-26T06:22:57;99833.59;;;6.66;78.56
70833;BME280;58452;59.418;17.962;2023-04-26T06:25:23;99834.13;;;6.69;78.03
70833;BME280;58452;59.418;17.962;2023-04-26T06:27:48;99824.91;;;6.86;77.46
70833;BME280;58452;59.418;17.962;2023-04-26T06:30:14;99819.84;;;7.04;75.92
70833;BME280;58452;59.418;17.962;2023-04-26T06:32:40;99821.72;;;7.02;76.15
70833;BME280;58452;59.418;17.962;2023-04-26T06:35:06;99835.34;;;6.75;77.23
70833;BME280;58452;59.418;17.962;2023-04-26T06:37:32;99836.22;;;6.37;76.94
70833;BME280;58452;59.418;17.962;2023-04-26T06:39:57;99835.28;;;6.19;77.10
70833;BME280;58452;59.418;17.962;2023-04-26T06:42:22;99838.63;;;6.29;78.74
70833;BME280;58452;59.418;17.962;2023-04-26T06:44:48;99841.47;;;6.45;77.98
70833;BME280;58452;59.418;17.962;2023-04-26T06:47:13;99853.34;;;6.27;78.96
70833;BME280;58452;59.418;17.962;2023-04-26T06:49:39;99856.84;;;6.07;81.55
70833;BME280;58452;59.418;17.962;2023-04-26T06:52:05;99861.09;;;5.68;81.93
70833;BME280;58452;59.418;17.962;2023-04-26T06:54:31;99867.59;;;5.32;82.06
70833;BME280;58452;59.418;17.962;2023-04-26T06:56:57;99863.25;;;5.23;82.13
70833;BME280;58452;59.418;17.962;2023-04-26T06:59:22;99869.19;;;5.33;81.91
70833;BME280;58452;59.418;17.962;2023-04-26T07:01:48;99872.72;;;5.32;81.42
70833;BME280;58452;59.418;17.962;2023-04-26T07:04:13;99878.84;;;5.20;80.62
70833;BME280;58452;59.418;17.962;2023-04-26T07:06:41;99886.53;;;5.20;80.87
70833;BME280;58452;59.418;17.962;2023-04-26T07:09:06;99890.25;;;4.85;83.21
70833;BME280;58452;59.418;17.962;2023-04-26T07:11:33;99896.97;;;4.86;83.32
70833;BME280;58452;59.418;17.962;2023-04-26T07:13:58;99902.25;;;4.74;83.98
70833;BME280;58452;59.418;17.962;2023-04-26T07:16:25;99899.91;;;4.82;83.42
70833;BME280;58452;59.418;17.962;2023-04-26T07:18:50;99905.44;;;4.66;84.13
70833;BME280;58452;59.418;17.962;2023-04-26T07:21:17;99912.69;;;4.61;84.50
70833;BME280;58452;59.418;17.962;2023-04-26T07:23:43;99912.69;;;4.61;84.96
70833;BME280;58452;59.418;17.962;2023-04-26T07:26:11;99914.63;;;4.69;86.21
70833;BME280;58452;59.418;17.962;2023-04-26T07:28:37;99917.28;;;4.67;86.12
70833;BME280;58452;59.418;17.962;2023-04-26T07:31:03;99918.38;;;4.65;86.73
70833;BME280;58452;59.418;17.962;2023-04-26T07:33:29;99921.41;;;4.79;88.25
70833;BME280;58452;59.418;17.962;2023-04-26T07:35:58;99927.72;;;4.75;88.36
70833;BME280;58452;59.418;17.962;2023-04-26T07:38:26;99933.03;;;4.83;88.64
70833;BME280;58452;59.418;17.962;2023-04-26T07:40:51;99937.94;;;4.96;88.87
70833;BME280;58452;59.418;17.962;2023-04-26T07:43:18;99933.19;;;5.12;88.98
70833;BME280;58452;59.418;17.962;2023-04-26T07:45:43;99933.50;;;5.19;90.05
70833;BME280;58452;59.418;17.962;2023-04-26T07:48:09;99934.31;;;5.19;88.87
70833;BME280;58452;59.418;17.962;2023-04-26T07:50:34;99924.03;;;5.40;89.28
70833;BME280;58452;59.418;17.962;2023-04-26T07:53:00;99930.88;;;5.39;88.23
70833;BME280;58452;59.418;17.962;2023-04-26T07:55:25;99928.81;;;5.24;87.77
70833;BME280;58452;59.418;17.962;2023-04-26T07:57:51;99930.28;;;5.26;86.76
70833;BME280;58452;59.418;17.962;2023-04-26T08:00:17;99928.88;;;5.13;85.76
70833;BME280;58452;59.418;17.962;2023-04-26T08:02:43;99929.75;;;5.23;87.15
70833;BME280;58452;59.418;17.962;2023-04-26T08:05:11;99933.94;;;5.24;88.57
70833;BME280;58452;59.418;17.962;2023-04-26T08:07:37;99926.00;;;5.27;88.53
70833;BME280;58452;59.418;17.962;2023-04-26T08:10:03;99941.94;;;5.40;86.46
70833;BME280;58452;59.418;17.962;2023-04-26T08:12:28;99926.94;;;5.56;86.02
70833;BME280;58452;59.418;17.962;2023-04-26T08:14:53;99932.81;;;5.47;85.71
70833;BME280;58452;59.418;17.962;2023-04-26T08:17:19;99941.25;;;5.68;84.14
70833;BME280;58452;59.418;17.962;2023-04-26T08:19:44;99939.78;;;5.75;81.76
70833;BME280;58452;59.418;17.962;2023-04-26T08:22:10;99942.53;;;5.53;80.46
70833;BME280;58452;59.418;17.962;2023-04-26T08:24:35;99945.28;;;5.61;79.58
70833;BME280;58452;59.418;17.962;2023-04-26T08:27:01;99948.28;;;5.76;79.28
70833;BME280;58452;59.418;17.962;2023-04-26T08:29:26;99941.81;;;5.81;77.61
70833;BME280;58452;59.418;17.962;2023-04-26T08:31:52;99947.00;;;5.91;77.22
70833;BME280;58452;59.418;17.962;2023-04-26T08:34:18;99950.38;;;5.92;78.33
70833;BME280;58452;59.418;17.962;2023-04-26T08:36:43;99945.72;;;6.16;79.29
70833;BME280;58452;59.418;17.962;2023-04-26T08:39:10;99948.69;;;6.40;78.20
70833;BME280;58452;59.418;17.962;2023-04-26T08:41:42;99958.63;;;6.05;75.70
70833;BME280;58452;59.418;17.962;2023-04-26T08:44:08;99960.59;;;5.92;74.97
70833;BME280;58452;59.418;17.962;2023-04-26T08:46:54;99955.66;;;5.69;74.61
70833;BME280;58452;59.418;17.962;2023-04-26T08:49:30;99961.22;;;5.74;73.28
70833;BME280;58452;59.418;17.962;2023-04-26T08:52:00;99963.06;;;5.72;72.76
70833;BME280;58452;59.418;17.962;2023-04-26T08:54:28;99960.03;;;5.48;72.57
70833;BME280;58452;59.418;17.962;2023-04-26T08:56:54;99962.91;;;5.34;73.03
70833;BME280;58452;59.418;17.962;2023-04-26T08:59:24;99951.06;;;5.33;73.00
70833;BME280;58452;59.418;17.962;2023-04-26T09:01:49;99963.50;;;5.47;73.02
70833;BME280;58452;59.418;17.962;2023-04-26T09:04:15;99962.50;;;5.59;71.91
70833;BME280;58452;59.418;17.962;2023-04-26T09:06:42;99957.66;;;5.66;72.17
70833;BME280;58452;59.418;17.962;2023-04-26T09:09:08;99963.94;;;5.82;71.91
70833;BME280;58452;59.418;17.962;2023-04-26T09:11:58;99962.66;;;5.98;73.70
70833;BME280;58452;59.418;17.962;2023-04-26T09:14:25;99964.69;;;6.13;72.55
70833;BME280;58452;59.418;17.962;2023-04-26T09:16:52;99955.41;;;6.31;71.98
70833;BME280;58452;59.418;17.962;2023-04-26T09:19:37;99963.66;;;6.35;71.80
70833;BME280;58452;59.418;17.962;2023-04-26T09:22:03;99966.75;;;6.29;71.66
70833;BME280;58452;59.418;17.962;2023-04-26T09:24:48;99959.72;;;6.21;72.75
70833;BME280;58452;59.418;17.962;2023-04-26T09:27:15;99957.94;;;6.03;71.58
70833;BME280;58452;59.418;17.962;2023-04-26T09:29:57;99957.22;;;5.91;71.78
70833;BME280;58452;59.418;17.962;2023-04-26T09:32:24;99954.28;;;5.96;72.47
70833;BME280;58452;59.418;17.962;2023-04-26T09:34:49;99954.81;;;5.89;71.76
70833;BME280;58452;59.418;17.962;2023-04-26T09:37:15;99956.34;;;6.21;71.75
70833;BME280;58452;59.418;17.962;2023-04-26T09:39:41;99947.88;;;6.30;70.58
70833;BME280;58452;59.418;17.962;2023-04-26T09:42:08;99952.72;;;6.43;69.77
70833;BME280;58452;59.418;17.962;2023-04-26T09:44:33;99951.66;;;6.26;69.65
70833;BME280;58452;59.418;17.962;2023-04-26T09:47:09;99949.78;;;6.47;70.32
70833;BME280;58452;59.418;17.962;2023-04-26T09:52:09;99954.06;;;6.95;66.98
70833;BME280;58452;59.418;17.962;2023-04-26T09:54:38;99957.28;;;7.06;66.74
70833;BME280;58452;59.418;17.962;2023-04-26T09:57:05;99962.16;;;7.00;66.79
70833;BME280;58452;59.418;17.962;2023-04-26T10:02:20;99956.50;;;6.96;66.63
70833;BME280;58452;59.418;17.962;2023-04-26T10:04:50;99964.56;;;7.11;66.04
70833;BME280;58452;59.418;17.962;2023-04-26T10:07:19;99978.22;;;7.02;66.61
70833;BME280;58452;59.418;17.962;2023-04-26T10:09:45;99977.59;;;6.71;67.95
70833;BME280;58452;59.418;17.962;2023-04-26T10:12:12;99974.34;;;6.78;68.57
70833;BME280;58452;59.418;17.962;2023-04-26T10:14:38;99972.16;;;6.83;65.76
70833;BME280;58452;59.418;17.962;2023-04-26T10:17:04;99967.88;;;6.74;66.89
70833;BME280;58452;59.418;17.962;2023-04-26T10:19:31;99969.47;;;6.75;66.05
70833;BME280;58452;59.418;17.962;2023-04-26T10:22:03;99977.59;;;6.71;66.49
70833;BME280;58452;59.418;17.962;2023-04-26T10:24:29;99974.59;;;6.75;67.35
70833;BME280;58452;59.418;17.962;2023-04-26T10:26:55;99977.97;;;6.85;66.00
70833;BME280;58452;59.418;17.962;2023-04-26T10:29:30;99986.97;;;7.09;65.36
70833;BME280;58452;59.418;17.962;2023-04-26T10:32:11;99974.81;;;7.20;66.41
70833;BME280;58452;59.418;17.962;2023-04-26T10:34:41;99973.13;;;7.48;63.96
70833;BME280;58452;59.418;17.962;2023-04-26T10:37:12;99973.66;;;7.42;60.89
70833;BME280;58452;59.418;17.962;2023-04-26T10:39:42;99976.09;;;7.44;61.10
70833;BME280;58452;59.418;17.962;2023-04-26T10:44:58;99977.69;;;7.81;59.39
70833;BME280;58452;59.418;17.962;2023-04-26T10:47:33;99981.06;;;7.82;60.01
70833;BME280;58452;59.418;17.962;2023-04-26T10:50:10;99985.78;;;7.86;57.92
70833;BME280;58452;59.418;17.962;2023-04-26T10:52:38;99977.22;;;8.23;59.34
70833;BME280;58452;59.418;17.962;2023-04-26T10:55:39;99983.41;;;8.30;58.83
70833;BME280;58452;59.418;17.962;2023-04-26T11:01:07;99984.53;;;8.45;58.61
70833;BME280;58452;59.418;17.962;2023-04-26T11:03:35;99991.81;;;8.67;58.30
70833;BME280;58452;59.418;17.962;2023-04-26T11:06:10;99993.44;;;8.86;57.71
70833;BME280;58452;59.418;17.962;2023-04-26T11:08:39;100000.25;;;8.77;58.52
70833;BME280;58452;59.418;17.962;2023-04-26T11:11:12;100005.91;;;8.63;58.14
70833;BME280;58452;59.418;17.962;2023-04-26T11:13:42;100006.44;;;8.22;58.41
70833;BME280;58452;59.418;17.962;2023-04-26T11:16:11;100020.44;;;8.37;56.98
70833;BME280;58452;59.418;17.962;2023-04-26T11:18:41;100009.94;;;8.48;56.96
70833;BME280;58452;59.418;17.962;2023-04-26T11:21:08;100012.69;;;8.47;55.66
70833;BME280;58452;59.418;17.962;2023-04-26T11:23:34;100026.34;;;8.20;54.76
70833;BME280;58452;59.418;17.962;2023-04-26T11:26:02;100015.25;;;8.29;55.15
70833;BME280;58452;59.418;17.962;2023-04-26T11:28:29;100011.78;;;8.73;52.97
70833;BME280;58452;59.418;17.962;2023-04-26T11:30:56;100049.38;;;8.12;53.58
70833;BME280;58452;59.418;17.962;2023-04-26T11:33:22;100032.38;;;8.01;53.22
70833;BME280;58452;59.418;17.962;2023-04-26T11:35:48;100031.03;;;8.07;52.68
70833;BME280;58452;59.418;17.962;2023-04-26T11:38:15;100013.88;;;8.25;52.87
70833;BME280;58452;59.418;17.962;2023-04-26T11:40:40;100028.34;;;8.71;50.64
70833;BME280;58452;59.418;17.962;2023-04-26T11:43:07;100030.19;;;8.78;48.48
70833;BME280;58452;59.418;17.962;2023-04-26T11:45:35;100027.50;;;8.35;48.77
70833;BME280;58452;59.418;17.962;2023-04-26T11:48:02;100021.94;;;8.57;50.96
70833;BME280;58452;59.418;17.962;2023-04-26T11:50:30;100020.91;;;8.68;50.79
70833;BME280;58452;59.418;17.962;2023-04-26T11:52:58;100018.19;;;9.05;52.63
70833;BME280;58452;59.418;17.962;2023-04-26T11:55:28;100028.03;;;8.92;49.05
70833;BME280;58452;59.418;17.962;2023-04-26T11:57:55;100019.28;;;8.84;48.86
70833;BME280;58452;59.418;17.962;2023-04-26T12:00:22;100021.91;;;9.10;49.17
70833;BME280;58452;59.418;17.962;2023-04-26T12:02:49;100022.69;;;9.54;49.85
70833;BME280;58452;59.418;17.962;2023-04-26T12:05:25;100025.50;;;10.03;49.29
70833;BME280;58452;59.418;17.962;2023-04-26T12:07:53;100035.69;;;9.70;46.86
70833;BME280;58452;59.418;17.962;2023-04-26T12:10:23;100025.50;;;9.61;47.02
70833;BME280;58452;59.418;17.962;2023-04-26T12:12:49;100032.72;;;9.65;45.79
70833;BME280;58452;59.418;17.962;2023-04-26T12:15:16;100045.59;;;9.31;47.45
70833;BME280;58452;59.418;17.962;2023-04-26T12:18:09;100034.91;;;8.83;48.04
70833;BME280;58452;59.418;17.962;2023-04-26T12:20:38;100036.44;;;8.58;51.10
70833;BME280;58452;59.418;17.962;2023-04-26T12:23:11;100033.78;;;8.86;51.37
70833;BME280;58452;59.418;17.962;2023-04-26T12:25:38;100042.00;;;9.07;48.85
70833;BME280;58452;59.418;17.962;2023-04-26T12:28:06;100044.38;;;8.82;49.69
70833;BME280;58452;59.418;17.962;2023-04-26T12:30:38;100034.88;;;9.01;49.06
70833;BME280;58452;59.418;17.962;2023-04-26T12:33:04;100040.50;;;9.22;48.94
70833;BME280;58452;59.418;17.962;2023-04-26T12:35:30;100032.66;;;9.49;48.07
70833;BME280;58452;59.418;17.962;2023-04-26T12:37:56;100026.44;;;9.94;49.94
70833;BME280;58452;59.418;17.962;2023-04-26T12:40:25;100043.00;;;10.17;47.26
70833;BME280;58452;59.418;17.962;2023-04-26T12:42:51;100037.72;;;9.93;47.11
70833;BME280;58452;59.418;17.962;2023-04-26T12:45:17;100046.97;;;9.26;47.98
70833;BME280;58452;59.418;17.962;2023-04-26T12:47:46;100045.03;;;9.02;49.37
70833;BME280;58452;59.418;17.962;2023-04-26T12:50:13;100054.44;;;8.76;48.53
70833;BME280;58452;59.418;17.962;2023-04-26T12:52:39;100049.22;;;8.86;48.31
70833;BME280;58452;59.418;17.962;2023-04-26T12:55:09;100048.69;;;8.82;48.81
70833;BME280;58452;59.418;17.962;2023-04-26T12:57:36;100051.34;;;9.08;50.16
70833;BME280;58452;59.418;17.962;2023-04-26T13:00:03;100038.69;;;9.40;47.76
70833;BME280;58452;59.418;17.962;2023-04-26T13:02:29;100037.69;;;9.33;47.38
70833;BME280;58452;59.418;17.962;2023-04-26T13:04:54;100046.78;;;9.45;47.48
70833;BME280;58452;59.418;17.962;2023-04-26T13:07:20;100044.28;;;9.53;46.49